createdAt,value
2018-05-31T00:00:46.584Z,15.89
2018-05-31T00:03:14.100Z,15.92
2018-05-31T00:05:41.674Z,15.89
2018-05-31T00:08:09.213Z,15.87
2018-05-31T00:10:36.728Z,15.80
2018-05-31T00:13:04.245Z,15.79
2018-05-31T00:15:31.764Z,15.80
2018-05-31T00:17:59.291Z,15.77
2018-05-31T00:20:26.805Z,15.76
2018-05-31T00:22:54.324Z,15.70
2018-05-31T00:25:21.834Z,15.67
2018-05-31T00:27:49.340Z,15.63
2018-05-31T00:30:16.864Z,15.50
2018-05-31T00:32:44.395Z,15.56
2018-05-31T00:35:11.913Z,15.50
2018-05-31T00:37:39.425Z,15.46
2018-05-31T00:40:06.939Z,15.42
2018-05-31T00:42:34.450Z,15.37
2018-05-31T00:45:01.984Z,15.48
2018-05-31T00:47:29.632Z,15.71
2018-05-31T00:49:57.150Z,15.92
2018-05-31T00:52:24.668Z,16.12
2018-05-31T00:54:52.174Z,16.43
2018-05-31T00:57:19.716Z,16.70
2018-05-31T00:59:47.239Z,16.97
2018-05-31T01:02:14.786Z,16.46
2018-05-31T01:04:42.332Z,16.41
2018-05-31T01:07:09.901Z,16.61
2018-05-31T01:09:37.451Z,16.77
2018-05-31T01:12:04.987Z,16.99
2018-05-31T01:14:32.570Z,17.12
2018-05-31T01:17:00.081Z,17.15
2018-05-31T01:19:27.635Z,17.18
2018-05-31T01:21:55.191Z,17.23
2018-05-31T01:24:22.695Z,17.19
2018-05-31T01:26:50.208Z,16.69
2018-05-31T01:29:17.760Z,16.32
2018-05-31T01:31:45.355Z,15.96
2018-05-31T01:34:12.886Z,15.98
2018-05-31T01:36:40.451Z,16.06
2018-05-31T01:39:07.976Z,15.94
2018-05-31T01:41:35.479Z,15.68
2018-05-31T01:44:02.993Z,15.85
2018-05-31T01:46:30.510Z,16.28
2018-05-31T01:48:58.259Z,16.48
2018-05-31T01:51:25.790Z,16.62
2018-05-31T01:53:53.307Z,16.17
2018-05-31T01:56:20.807Z,15.82
2018-05-31T01:58:48.325Z,15.27
2018-05-31T02:01:15.852Z,15.22
2018-05-31T02:03:43.408Z,15.09
2018-05-31T02:06:10.930Z,15.06
2018-05-31T02:08:38.504Z,14.95
2018-05-31T02:11:06.023Z,14.76
2018-05-31T02:13:33.543Z,14.96
2018-05-31T02:16:01.065Z,15.00
2018-05-31T02:18:28.585Z,14.84
2018-05-31T02:20:56.111Z,14.63
2018-05-31T02:23:23.635Z,14.67
2018-05-31T02:25:51.204Z,15.08
2018-05-31T02:28:18.726Z,14.72
2018-05-31T02:30:46.324Z,14.57
2018-05-31T02:33:13.834Z,14.55
2018-05-31T02:35:41.397Z,14.49
2018-05-31T02:38:08.919Z,14.51
2018-05-31T02:40:36.445Z,14.48
2018-05-31T02:43:04.010Z,14.56
2018-05-31T02:45:31.512Z,14.99
2018-05-31T02:47:59.031Z,15.25
2018-05-31T02:50:26.541Z,15.21
2018-05-31T02:52:54.061Z,14.75
2018-05-31T02:55:21.583Z,14.40
2018-05-31T02:57:49.140Z,14.47
2018-05-31T03:00:16.720Z,14.26
2018-05-31T03:02:44.251Z,14.28
2018-05-31T03:05:11.816Z,15.07
2018-05-31T03:07:39.371Z,15.35
2018-05-31T03:10:06.936Z,15.55
2018-05-31T03:12:34.451Z,15.70
2018-05-31T03:15:02.019Z,15.56
2018-05-31T03:17:29.544Z,15.31
2018-05-31T03:19:57.058Z,15.60
2018-05-31T03:22:24.585Z,15.51
2018-05-31T03:24:52.111Z,15.66
2018-05-31T03:27:19.679Z,15.65
2018-05-31T03:29:47.217Z,15.53
2018-05-31T03:32:14.728Z,15.89
2018-05-31T03:34:42.299Z,16.04
2018-05-31T03:37:09.835Z,16.24
2018-05-31T03:39:37.371Z,16.10
2018-05-31T03:42:04.907Z,15.97
2018-05-31T03:44:32.481Z,15.88
2018-05-31T03:47:00.029Z,15.77
2018-05-31T03:49:27.544Z,15.47
2018-05-31T03:51:55.073Z,15.33
2018-05-31T03:54:22.657Z,15.03
2018-05-31T03:56:50.237Z,14.69
2018-05-31T03:59:17.754Z,14.97
2018-05-31T04:01:45.314Z,14.96
2018-05-31T04:04:12.850Z,15.20
2018-05-31T04:06:40.386Z,15.49
2018-05-31T04:09:07.896Z,15.28
2018-05-31T04:11:35.430Z,15.37
2018-05-31T04:14:03.222Z,15.60
2018-05-31T04:16:30.745Z,15.64
2018-05-31T04:18:58.300Z,15.46
2018-05-31T04:21:25.826Z,15.56
2018-05-31T04:23:53.354Z,15.64
2018-05-31T04:26:20.880Z,15.93
2018-05-31T04:28:48.410Z,16.01
2018-05-31T04:31:15.946Z,16.28
2018-05-31T04:33:43.527Z,16.27
2018-05-31T04:36:11.051Z,16.43
2018-05-31T04:38:38.554Z,16.51
2018-05-31T04:41:06.076Z,16.60
2018-05-31T04:43:33.600Z,16.70
2018-05-31T04:46:01.129Z,16.69
2018-05-31T04:48:28.719Z,16.26
2018-05-31T04:50:56.259Z,16.54
2018-05-31T04:53:23.795Z,16.55
2018-05-31T04:55:51.321Z,16.68
2018-05-31T04:58:18.876Z,16.61
2018-05-31T05:00:46.411Z,16.70
2018-05-31T05:03:13.934Z,17.16
2018-05-31T05:05:41.455Z,17.24
2018-05-31T05:08:09.036Z,17.45
2018-05-31T05:10:36.555Z,17.90
2018-05-31T05:13:04.069Z,18.40
2018-05-31T05:15:31.632Z,18.69
2018-05-31T05:17:59.158Z,19.10
2018-05-31T05:20:26.678Z,19.53
2018-05-31T05:22:54.250Z,19.86
2018-05-31T05:25:21.803Z,20.14
2018-05-31T05:27:49.351Z,20.50
2018-05-31T05:30:16.926Z,20.43
2018-05-31T05:32:44.463Z,20.68
2018-05-31T05:35:11.982Z,21.47
2018-05-31T05:37:39.521Z,21.72
2018-05-31T05:40:07.056Z,21.33
2018-05-31T05:42:34.578Z,21.99
2018-05-31T05:45:02.109Z,22.36
2018-05-31T05:47:29.684Z,22.89
2018-05-31T05:49:57.218Z,23.05
2018-05-31T05:52:24.780Z,22.97
2018-05-31T05:54:52.336Z,23.14
2018-05-31T05:57:19.864Z,23.42
2018-05-31T05:59:47.407Z,23.11
2018-05-31T06:02:14.996Z,23.44
2018-05-31T06:04:42.527Z,24.19
2018-05-31T06:07:10.064Z,23.65
2018-05-31T06:09:37.620Z,23.90
2018-05-31T06:12:05.141Z,23.82
2018-05-31T06:14:32.680Z,23.96
2018-05-31T06:17:00.256Z,24.89
2018-05-31T06:19:27.769Z,24.56
2018-05-31T06:21:55.311Z,24.48
2018-05-31T06:24:22.872Z,25.18
2018-05-31T06:26:50.401Z,24.56
2018-05-31T06:29:18.046Z,24.43
2018-05-31T06:31:45.572Z,24.69
2018-05-31T06:34:13.106Z,24.65
2018-05-31T06:36:41.439Z,24.72
2018-05-31T06:39:08.962Z,25.29
2018-05-31T06:41:36.472Z,25.58
2018-05-31T06:44:04.023Z,24.50
2018-05-31T06:46:31.590Z,24.60
2018-05-31T06:48:59.102Z,25.69
2018-05-31T06:51:26.616Z,26.42
2018-05-31T06:53:54.128Z,26.57
2018-05-31T06:56:21.648Z,26.43
2018-05-31T06:58:49.174Z,27.10
2018-05-31T07:01:16.998Z,26.93
2018-05-31T07:03:44.548Z,26.64
2018-05-31T07:08:53.946Z,26.02
2018-05-31T07:11:21.456Z,26.01
2018-05-31T07:13:49.003Z,25.44
2018-05-31T07:16:16.517Z,26.08
2018-05-31T07:18:44.024Z,25.90
2018-05-31T07:21:11.536Z,26.69
2018-05-31T07:23:39.045Z,26.57
2018-05-31T07:26:06.553Z,27.13
2018-05-31T07:28:34.070Z,28.02
2018-05-31T07:31:01.574Z,27.07
2018-05-31T07:33:29.084Z,26.93
2018-05-31T07:35:56.596Z,27.06
2018-05-31T07:38:24.194Z,27.95
2018-05-31T07:40:51.697Z,27.51
2018-05-31T07:43:19.214Z,26.87
2018-05-31T07:45:46.738Z,26.45
2018-05-31T07:48:14.315Z,26.79
2018-05-31T07:50:41.819Z,27.53
2018-05-31T07:53:09.336Z,27.19
2018-05-31T07:55:36.831Z,27.55
2018-05-31T07:58:04.832Z,27.82
2018-05-31T08:00:32.435Z,28.35
2018-05-31T08:02:59.936Z,28.48
2018-05-31T08:05:27.460Z,28.82
2018-05-31T08:07:55.011Z,28.80
2018-05-31T08:10:22.519Z,27.68
2018-05-31T08:12:50.084Z,28.25
2018-05-31T08:15:17.609Z,29.07
2018-05-31T08:17:45.148Z,29.91
2018-05-31T08:20:12.661Z,29.70
2018-05-31T08:22:40.172Z,29.51
2018-05-31T08:25:07.688Z,29.18
2018-05-31T08:27:35.194Z,28.79
2018-05-31T08:30:02.707Z,28.73
2018-05-31T08:32:30.217Z,28.92
2018-05-31T08:34:57.723Z,29.36
2018-05-31T08:37:25.228Z,28.61
2018-05-31T08:39:52.780Z,28.59
2018-05-31T08:42:20.326Z,28.19
2018-05-31T08:44:47.822Z,29.03
2018-05-31T08:47:15.329Z,29.25
2018-05-31T08:49:42.836Z,29.36
2018-05-31T08:52:10.376Z,29.11
2018-05-31T08:54:37.882Z,29.19
2018-05-31T08:57:05.399Z,29.53
2018-05-31T08:59:32.903Z,29.45
2018-05-31T09:02:00.406Z,30.37
2018-05-31T09:04:27.945Z,31.08
2018-05-31T09:06:55.448Z,31.91
2018-05-31T09:09:23.013Z,30.89
2018-05-31T09:11:50.507Z,29.61
2018-05-31T09:14:18.007Z,29.68
2018-05-31T09:16:46.315Z,30.76
2018-05-31T09:19:13.821Z,31.09
2018-05-31T09:21:41.347Z,30.88
2018-05-31T09:24:08.849Z,30.44
2018-05-31T09:26:36.343Z,31.07
2018-05-31T09:29:03.867Z,30.95
2018-05-31T09:31:31.366Z,29.83
2018-05-31T09:33:58.863Z,29.63
2018-05-31T09:36:26.376Z,30.35
2018-05-31T09:38:53.887Z,30.87
2018-05-31T09:41:21.386Z,30.47
2018-05-31T09:43:48.915Z,30.23
2018-05-31T09:46:16.418Z,30.43
2018-05-31T09:48:43.918Z,30.74
2018-05-31T09:51:11.423Z,30.66
2018-05-31T09:53:38.955Z,30.60
2018-05-31T09:56:06.494Z,31.02
2018-05-31T09:58:33.987Z,30.52
2018-05-31T10:01:01.548Z,29.69
2018-05-31T10:03:29.046Z,29.94
2018-05-31T10:05:56.559Z,29.12
2018-05-31T10:08:24.081Z,29.37
2018-05-31T10:10:51.596Z,29.57
2018-05-31T10:13:19.145Z,30.09
2018-05-31T10:15:46.666Z,30.68
2018-05-31T10:18:14.179Z,31.27
2018-05-31T10:20:41.684Z,31.08
2018-05-31T10:23:09.227Z,29.86
2018-05-31T10:25:36.785Z,31.10
2018-05-31T10:28:04.321Z,31.70
2018-05-31T10:30:31.883Z,31.75
2018-05-31T10:32:59.422Z,32.45
2018-05-31T10:35:27.057Z,32.29
2018-05-31T10:37:54.555Z,31.33
2018-05-31T10:40:22.178Z,31.06
2018-05-31T10:42:49.683Z,31.46
2018-05-31T10:45:17.192Z,32.29
2018-05-31T10:47:44.692Z,33.30
2018-05-31T10:50:12.200Z,32.43
2018-05-31T10:52:39.723Z,31.73
2018-05-31T10:55:07.273Z,32.38
2018-05-31T10:57:34.793Z,33.19
2018-05-31T11:00:02.362Z,33.78
2018-05-31T11:02:29.880Z,33.89
2018-05-31T11:04:57.399Z,34.18
2018-05-31T11:07:24.971Z,33.61
2018-05-31T11:09:52.504Z,32.82
2018-05-31T11:12:20.018Z,32.51
2018-05-31T11:14:47.538Z,32.80
2018-05-31T11:17:15.055Z,33.67
2018-05-31T11:19:42.600Z,32.74
2018-05-31T11:22:10.111Z,32.31
2018-05-31T11:24:37.663Z,32.41
2018-05-31T11:27:05.187Z,32.00
2018-05-31T11:29:32.725Z,31.76
2018-05-31T11:32:00.231Z,31.34
2018-05-31T11:34:27.731Z,30.83
2018-05-31T11:36:55.323Z,31.03
2018-05-31T11:39:22.872Z,32.15
2018-05-31T11:41:50.456Z,32.27
2018-05-31T11:44:17.959Z,32.42
2018-05-31T11:46:45.825Z,32.98
2018-05-31T11:49:13.331Z,31.84
2018-05-31T11:51:40.928Z,30.32
2018-05-31T11:54:08.437Z,30.59
2018-05-31T11:56:36.012Z,31.02
2018-05-31T11:59:03.530Z,30.60
2018-05-31T12:01:31.056Z,30.48
2018-05-31T12:03:58.826Z,30.42
2018-05-31T12:06:26.361Z,30.22
2018-05-31T12:08:53.906Z,30.28
2018-05-31T12:11:21.419Z,30.45
2018-05-31T12:13:48.959Z,30.34
2018-05-31T12:16:16.469Z,29.93
2018-05-31T12:18:43.990Z,29.38
2018-05-31T12:21:11.509Z,30.32
2018-05-31T12:23:39.077Z,30.38
2018-05-31T12:26:06.901Z,30.71
2018-05-31T12:28:34.707Z,30.46
2018-05-31T12:31:02.349Z,29.79
2018-05-31T12:33:29.866Z,28.96
2018-05-31T12:35:57.371Z,29.21
2018-05-31T12:38:24.930Z,29.68
2018-05-31T12:40:52.431Z,29.46
2018-05-31T12:43:19.971Z,29.11
2018-05-31T12:45:47.491Z,29.67
2018-05-31T12:48:15.039Z,29.85
2018-05-31T12:50:42.554Z,29.90
2018-05-31T12:53:10.069Z,30.03
2018-05-31T12:55:37.626Z,29.99
2018-05-31T12:58:05.175Z,29.10
2018-05-31T13:00:32.732Z,29.14
2018-05-31T13:03:00.236Z,29.50
2018-05-31T13:05:27.743Z,29.97
2018-05-31T13:07:55.253Z,30.58
2018-05-31T13:10:22.817Z,30.77
2018-05-31T13:12:50.326Z,31.34
2018-05-31T13:15:17.846Z,31.98
2018-05-31T13:17:45.351Z,32.65
2018-05-31T13:20:12.936Z,32.81
2018-05-31T13:22:40.444Z,33.05
2018-05-31T13:25:07.964Z,33.86
2018-05-31T13:27:35.480Z,34.41
2018-05-31T13:30:04.422Z,34.50
2018-05-31T13:32:31.930Z,34.73
2018-05-31T13:34:59.538Z,33.27
2018-05-31T13:37:27.052Z,30.76
2018-05-31T13:39:54.598Z,29.82
2018-05-31T13:42:22.099Z,29.44
2018-05-31T13:44:49.612Z,29.19
2018-05-31T13:47:17.123Z,29.12
2018-05-31T13:49:44.657Z,29.09
2018-05-31T13:52:12.176Z,29.07
2018-05-31T13:54:39.682Z,28.89
2018-05-31T13:57:07.184Z,28.95
2018-05-31T13:59:34.682Z,28.47
2018-05-31T14:02:02.192Z,28.32
2018-05-31T14:04:29.740Z,28.17
2018-05-31T14:06:57.251Z,28.30
2018-05-31T14:09:24.817Z,28.58
2018-05-31T14:11:52.290Z,28.61
2018-05-31T14:14:20.819Z,28.37
2018-05-31T14:16:48.323Z,28.23
2018-05-31T14:19:15.836Z,27.96
2018-05-31T14:21:43.382Z,27.69
2018-05-31T14:24:10.887Z,27.84
2018-05-31T14:26:38.412Z,28.09
2018-05-31T14:29:05.935Z,28.24
2018-05-31T14:31:33.480Z,28.37
2018-05-31T14:34:00.996Z,28.40
2018-05-31T14:36:28.536Z,28.53
2018-05-31T14:38:56.817Z,28.67
2018-05-31T14:41:27.018Z,28.65
2018-05-31T14:43:54.510Z,28.80
2018-05-31T14:46:22.082Z,28.65
2018-05-31T14:48:49.587Z,28.34
2018-05-31T14:51:17.083Z,27.95
2018-05-31T14:53:44.593Z,28.04
2018-05-31T14:56:12.116Z,27.90
2018-05-31T14:58:39.625Z,27.83
2018-05-31T15:01:07.133Z,27.94
2018-05-31T15:03:34.657Z,27.76
2018-05-31T15:06:02.192Z,27.85
2018-05-31T15:11:51.247Z,27.68
2018-05-31T15:14:18.787Z,27.67
2018-05-31T15:16:46.327Z,27.68
2018-05-31T15:19:13.823Z,27.71
2018-05-31T15:21:41.322Z,27.81
2018-05-31T15:24:08.850Z,27.83
2018-05-31T15:26:36.386Z,27.61
2018-05-31T15:29:03.881Z,27.59
2018-05-31T15:31:31.398Z,27.55
2018-05-31T15:33:58.902Z,27.39
2018-05-31T15:36:26.399Z,27.37
2018-05-31T15:38:53.907Z,27.25
2018-05-31T15:41:21.410Z,27.15
2018-05-31T15:43:48.961Z,27.17
2018-05-31T15:46:16.477Z,27.06
2018-05-31T15:48:43.984Z,26.92
2018-05-31T15:51:11.479Z,26.97
2018-05-31T15:53:39.002Z,27.02
2018-05-31T15:56:06.495Z,26.85
2018-05-31T15:58:34.015Z,26.66
2018-05-31T16:01:01.512Z,26.43
2018-05-31T16:03:29.028Z,26.36
2018-05-31T16:05:56.594Z,26.31
2018-05-31T16:08:24.120Z,26.29
2018-05-31T16:10:51.619Z,26.37
2018-05-31T16:13:19.114Z,26.32
2018-05-31T16:15:46.631Z,26.30
2018-05-31T16:18:14.137Z,26.19
2018-05-31T16:20:41.650Z,26.06
2018-05-31T16:23:09.158Z,26.03
2018-05-31T16:25:36.670Z,26.11
2018-05-31T16:28:04.197Z,26.11
2018-05-31T16:30:31.721Z,25.89
2018-05-31T16:32:59.229Z,25.98
2018-05-31T16:35:26.739Z,25.99
2018-05-31T16:37:54.240Z,25.83
2018-05-31T16:40:21.747Z,25.75
2018-05-31T16:42:49.255Z,25.71
2018-05-31T16:45:16.828Z,25.57
2018-05-31T16:47:44.338Z,25.61
2018-05-31T16:50:11.891Z,25.59
2018-05-31T16:52:39.411Z,25.53
2018-05-31T16:55:06.966Z,25.42
2018-05-31T16:57:34.539Z,25.32
2018-05-31T17:00:02.101Z,25.21
2018-05-31T17:02:29.598Z,25.26
2018-05-31T17:04:57.095Z,25.25
2018-05-31T17:07:24.599Z,25.06
2018-05-31T17:09:52.086Z,25.00
2018-05-31T17:12:19.623Z,24.96
2018-05-31T17:14:47.125Z,24.93
2018-05-31T17:17:14.667Z,24.85
2018-05-31T17:19:42.167Z,24.78
2018-05-31T17:22:09.715Z,24.69
2018-05-31T17:24:37.215Z,24.64
2018-05-31T17:27:04.718Z,24.45
2018-05-31T17:29:32.218Z,24.44
2018-05-31T17:31:59.709Z,24.37
2018-05-31T17:34:27.227Z,24.25
2018-05-31T17:36:54.727Z,24.26
2018-05-31T17:39:22.234Z,24.09
2018-05-31T17:41:49.781Z,24.07
2018-05-31T17:44:17.289Z,24.01
2018-05-31T17:46:44.865Z,23.96
2018-05-31T17:49:12.384Z,23.85
2018-05-31T17:51:39.987Z,23.82
2018-05-31T17:54:07.487Z,23.78
2018-05-31T17:56:34.996Z,23.76
2018-05-31T17:59:03.135Z,23.71
2018-05-31T18:01:30.638Z,23.58
2018-05-31T18:03:58.141Z,23.47
2018-05-31T18:06:25.687Z,23.35
2018-05-31T18:08:53.246Z,23.27
2018-05-31T18:11:20.803Z,23.20
2018-05-31T18:13:48.307Z,22.97
2018-05-31T18:16:15.815Z,23.07
2018-05-31T18:18:43.311Z,23.02
2018-05-31T18:21:10.843Z,22.97
2018-05-31T18:23:38.338Z,22.98
2018-05-31T18:26:05.887Z,22.97
2018-05-31T18:28:33.388Z,22.98
2018-05-31T18:31:00.916Z,22.88
2018-05-31T18:33:28.415Z,22.93
2018-05-31T18:35:55.975Z,22.86
2018-05-31T18:38:23.473Z,22.79
2018-05-31T18:40:51.049Z,22.71
2018-05-31T18:43:18.559Z,22.67
2018-05-31T18:45:46.059Z,22.58
2018-05-31T18:48:13.562Z,22.53
2018-05-31T18:50:41.067Z,22.53
2018-05-31T18:53:16.434Z,22.42
2018-05-31T18:55:43.947Z,22.41
2018-05-31T18:58:11.523Z,22.26
2018-05-31T19:00:39.123Z,22.21
2018-05-31T19:03:06.653Z,22.12
2018-05-31T19:05:34.158Z,22.12
2018-05-31T19:08:01.784Z,22.10
2018-05-31T19:10:29.287Z,22.02
2018-05-31T19:13:03.377Z,21.97
2018-05-31T19:15:34.410Z,21.95
2018-05-31T19:18:01.896Z,21.96
2018-05-31T19:20:29.401Z,21.94
2018-05-31T19:23:01.547Z,21.94
2018-05-31T19:25:29.063Z,21.97
2018-05-31T19:27:56.574Z,21.98
2018-05-31T19:30:29.882Z,21.95
2018-05-31T19:32:58.433Z,21.92
2018-05-31T19:35:49.405Z,21.93
2018-05-31T19:38:25.340Z,21.91
2018-05-31T19:40:52.865Z,21.83
2018-05-31T19:43:26.093Z,21.77
2018-05-31T19:45:53.656Z,21.66
2018-05-31T19:48:21.250Z,21.58
2018-05-31T19:50:48.755Z,21.45
2018-05-31T19:53:21.781Z,21.20
2018-05-31T19:55:49.284Z,21.11
2018-05-31T19:58:22.444Z,20.91
2018-05-31T20:00:55.657Z,20.77
2018-05-31T20:03:28.853Z,20.67
2018-05-31T20:05:56.412Z,20.59
2018-05-31T20:08:23.934Z,20.50
2018-05-31T20:10:51.450Z,20.51
2018-05-31T20:13:19.809Z,20.61
2018-05-31T20:15:47.342Z,20.64
2018-05-31T20:18:14.907Z,20.54
2018-05-31T20:20:42.524Z,20.48
2018-05-31T20:23:10.029Z,20.43
2018-05-31T20:25:37.541Z,20.48
2018-05-31T20:28:05.051Z,20.51
2018-05-31T20:30:32.575Z,20.50
2018-05-31T20:33:00.119Z,20.46
2018-05-31T20:35:27.652Z,20.48
2018-05-31T20:37:55.183Z,20.35
2018-05-31T20:40:22.693Z,20.43
2018-05-31T20:42:50.803Z,20.40
2018-05-31T20:45:18.330Z,20.42
2018-05-31T20:47:45.836Z,20.44
2018-05-31T20:50:13.353Z,20.40
2018-05-31T20:52:40.859Z,20.41
2018-05-31T20:55:08.369Z,20.46
2018-05-31T20:57:35.909Z,20.62
2018-05-31T21:00:05.051Z,20.56
2018-05-31T21:02:32.550Z,20.40
2018-05-31T21:05:00.055Z,20.30
2018-05-31T21:07:27.566Z,20.16
2018-05-31T21:09:55.066Z,20.10
2018-05-31T21:12:22.583Z,20.00
2018-05-31T21:14:50.111Z,19.85
2018-05-31T21:17:17.610Z,19.76
2018-05-31T21:19:45.113Z,19.57
2018-05-31T21:22:12.616Z,19.54
2018-05-31T21:27:30.205Z,19.35
2018-05-31T21:29:57.719Z,19.19
2018-05-31T21:32:25.226Z,19.06
2018-05-31T21:34:52.763Z,19.01
2018-05-31T21:37:20.266Z,18.93
2018-05-31T21:39:47.774Z,18.70
2018-05-31T21:42:15.272Z,18.69
2018-05-31T21:44:42.783Z,18.65
2018-05-31T21:47:10.289Z,18.59
2018-05-31T21:49:37.783Z,18.59
2018-05-31T21:52:05.297Z,18.56
2018-05-31T21:54:32.798Z,18.50
2018-05-31T21:57:00.320Z,18.41
2018-05-31T21:59:27.825Z,18.35
2018-05-31T22:01:55.376Z,18.31
2018-05-31T22:04:22.895Z,18.29
2018-05-31T22:06:50.406Z,18.24
2018-05-31T22:09:17.926Z,18.11
2018-05-31T22:11:45.467Z,18.04
2018-05-31T22:14:12.974Z,18.07
2018-05-31T22:16:40.525Z,18.10
2018-05-31T22:19:08.044Z,18.07
2018-05-31T22:21:35.551Z,17.98
2018-05-31T22:24:03.055Z,17.96
2018-05-31T22:26:30.567Z,17.91
2018-05-31T22:28:58.065Z,17.91
2018-05-31T22:31:25.607Z,17.95
2018-05-31T22:33:53.140Z,18.04
2018-05-31T22:36:20.684Z,18.12
2018-05-31T22:38:48.190Z,18.17
2018-05-31T22:41:15.794Z,18.11
2018-05-31T22:43:43.347Z,18.02
2018-05-31T22:46:10.855Z,17.84
2018-05-31T22:48:38.392Z,17.61
2018-05-31T22:51:05.922Z,17.54
2018-05-31T22:53:33.432Z,17.46
2018-05-31T22:56:00.979Z,17.48
2018-05-31T22:58:28.507Z,17.47
2018-05-31T23:00:56.079Z,17.50
2018-05-31T23:03:23.639Z,17.46
2018-05-31T23:05:51.155Z,17.51
2018-05-31T23:08:18.728Z,17.52
2018-05-31T23:10:46.231Z,17.55
2018-05-31T23:13:13.723Z,17.43
2018-05-31T23:15:41.232Z,17.33
2018-05-31T23:18:08.746Z,17.41
2018-05-31T23:20:36.250Z,17.45
2018-05-31T23:23:03.764Z,17.45
2018-05-31T23:25:31.258Z,17.27
2018-05-31T23:27:58.807Z,16.51
2018-05-31T23:30:26.351Z,17.08
2018-05-31T23:32:53.867Z,16.99
2018-05-31T23:35:21.366Z,16.89
2018-05-31T23:37:48.906Z,16.86
2018-05-31T23:40:16.407Z,16.75
2018-05-31T23:42:43.997Z,16.95
2018-05-31T23:45:11.528Z,16.99
2018-05-31T23:47:39.882Z,16.99
2018-05-31T23:50:07.408Z,16.93
2018-05-31T23:52:34.906Z,16.86
2018-05-31T23:55:02.399Z,16.77
2018-05-31T23:57:29.896Z,16.68
2018-05-31T23:59:57.399Z,16.73
